KCRS

C David Campbell Field-Corsicana Municipal Airport

Corsicana, Texas, USA
METAR KCRS 171453Z AUTO 33006KT 10SM CLR 08/04 A3027 RMK AO2 SLP252 T00780039 53008
Observed Flight Rules
Dec-17 @ 14:53 UTC (25 minutes ago) Visual Flight Rules
Wind Visibility Clouds
330° at 6 knots 10 miles
  • Clear skies
Temperatures Readings
Current 8°C / 46°F
Dewpoint 4°C / 39°F
Humidity 76%
Altimeter 30.27" Hg
Pressure 1025.2 hPa
Elevation 133
METAR KCRS 171453Z AUTO 33006KT 10SM CLR 08/04 A3027 RMK AO2 SLP252 T00780039 53008
Observed Flight Rules
Dec-17 @ 14:53 UTC
(25 minutes ago)
VFR
Wind Visibility
330° at 6 knots 10 miles
Clouds
  • Clear skies
Temperature Dewpoint
8°C / 46°F 4°C / 39°F
Humidity Altimeter Pressure
76% 30.27" Hg 1025.2 hPa